Webcam & Weather

This webcam image will automatically refresh every 15 seconds.


METAR and TAF for EGLL Heathrow (12 Nautical Miles East of White Waltham)

METAR FOR EGLL (Issued: Fri, July 21st 2017 6:20 PM UTC):
EGLL 211820Z AUTO 16012KT 9999 NCD 20/12 Q1006

TAF FOR EGLL (Issued: Fri, July 21st 2017 6:18 PM UTC):
TAF AMD EGLL 211714Z 2118/2224 15012KT 9999 SCT030 TEMPO 2118/2120 16016G26KT TEMPO 2120/2203 7000 RA BKN012 PROB30 TEMPO 2120/2202 18015G25KT 4000 +RA BKN008 BECMG 2200/2203 21008KT TEMPO 2211/2222 7000 SHRA PROB30 TEMPO 2213/2220 20015G25KT 3500 +SHRA BKN014 BKN030CB

Play 24 hour timelapse | Play 30 day timelapse

Comments are closed.